sensor_id;sensor_type;location;lat;lon;timestamp;P1;durP1;ratioP1;P2;durP2;ratioP2
47009;SDS011;59230;54.164;-3.124;2023-04-06T00:00:24;271.02;;;26.75;;
47009;SDS011;59230;54.164;-3.124;2023-04-06T00:02:51;302.95;;;29.00;;
47009;SDS011;59230;54.164;-3.124;2023-04-06T00:05:19;258.95;;;25.17;;
47009;SDS011;59230;54.164;-3.124;2023-04-06T00:07:49;376.98;;;26.35;;
47009;SDS011;59230;54.164;-3.124;2023-04-06T00:10:17;271.10;;;24.85;;
47009;SDS011;59230;54.164;-3.124;2023-04-06T00:12:46;313.27;;;23.48;;
47009;SDS011;59230;54.164;-3.124;2023-04-06T00:15:13;249.02;;;20.20;;
47009;SDS011;59230;54.164;-3.124;2023-04-06T00:17:40;118.72;;;16.63;;
47009;SDS011;59230;54.164;-3.124;2023-04-06T00:20:07;169.25;;;17.95;;
47009;SDS011;59230;54.164;-3.124;2023-04-06T00:22:34;166.50;;;18.17;;
47009;SDS011;59230;54.164;-3.124;2023-04-06T00:25:02;157.18;;;18.67;;
47009;SDS011;59230;54.164;-3.124;2023-04-06T00:27:30;220.52;;;21.92;;
47009;SDS011;59230;54.164;-3.124;2023-04-06T00:29:57;194.02;;;19.15;;
47009;SDS011;59230;54.164;-3.124;2023-04-06T00:32:22;63.63;;;13.85;;
47009;SDS011;59230;54.164;-3.124;2023-04-06T00:35:03;87.05;;;13.90;;
47009;SDS011;59230;54.164;-3.124;2023-04-06T00:37:32;152.10;;;16.65;;
47009;SDS011;59230;54.164;-3.124;2023-04-06T00:39:57;51.95;;;12.07;;
47009;SDS011;59230;54.164;-3.124;2023-04-06T00:42:23;128.90;;;15.80;;
47009;SDS011;59230;54.164;-3.124;2023-04-06T00:44:58;104.97;;;14.82;;
47009;SDS011;59230;54.164;-3.124;2023-04-06T00:47:25;96.22;;;15.75;;
47009;SDS011;59230;54.164;-3.124;2023-04-06T00:49:51;125.68;;;16.30;;
47009;SDS011;59230;54.164;-3.124;2023-04-06T00:52:19;77.13;;;12.85;;
47009;SDS011;59230;54.164;-3.124;2023-04-06T00:54:44;138.73;;;17.23;;
47009;SDS011;59230;54.164;-3.124;2023-04-06T00:57:11;71.65;;;13.93;;
47009;SDS011;59230;54.164;-3.124;2023-04-06T00:59:40;176.88;;;18.85;;
47009;SDS011;59230;54.164;-3.124;2023-04-06T01:02:07;187.50;;;19.02;;
47009;SDS011;59230;54.164;-3.124;2023-04-06T01:04:33;170.35;;;17.48;;
47009;SDS011;59230;54.164;-3.124;2023-04-06T01:06:59;70.78;;;13.70;;
47009;SDS011;59230;54.164;-3.124;2023-04-06T01:09:27;293.60;;;20.88;;
47009;SDS011;59230;54.164;-3.124;2023-04-06T01:11:53;171.45;;;16.20;;
47009;SDS011;59230;54.164;-3.124;2023-04-06T01:14:20;152.68;;;17.88;;
47009;SDS011;59230;54.164;-3.124;2023-04-06T01:16:46;166.90;;;19.27;;
47009;SDS011;59230;54.164;-3.124;2023-04-06T01:19:13;189.95;;;19.15;;
47009;SDS011;59230;54.164;-3.124;2023-04-06T01:21:39;101.35;;;16.85;;
47009;SDS011;59230;54.164;-3.124;2023-04-06T01:24:06;126.60;;;17.90;;
47009;SDS011;59230;54.164;-3.124;2023-04-06T01:26:33;184.02;;;22.23;;
47009;SDS011;59230;54.164;-3.124;2023-04-06T01:29:02;284.02;;;24.85;;
47009;SDS011;59230;54.164;-3.124;2023-04-06T01:31:28;209.82;;;26.70;;
47009;SDS011;59230;54.164;-3.124;2023-04-06T01:33:55;111.75;;;22.25;;
47009;SDS011;59230;54.164;-3.124;2023-04-06T01:36:21;237.55;;;28.20;;
47009;SDS011;59230;54.164;-3.124;2023-04-06T01:38:46;133.13;;;23.88;;
47009;SDS011;59230;54.164;-3.124;2023-04-06T01:41:13;162.98;;;24.00;;
47009;SDS011;59230;54.164;-3.124;2023-04-06T01:43:40;156.73;;;24.88;;
47009;SDS011;59230;54.164;-3.124;2023-04-06T01:46:05;152.65;;;23.65;;
47009;SDS011;59230;54.164;-3.124;2023-04-06T01:48:31;77.47;;;18.90;;
47009;SDS011;59230;54.164;-3.124;2023-04-06T01:50:58;79.65;;;19.00;;
47009;SDS011;59230;54.164;-3.124;2023-04-06T01:53:24;87.72;;;18.88;;
47009;SDS011;59230;54.164;-3.124;2023-04-06T01:55:52;93.50;;;20.27;;
47009;SDS011;59230;54.164;-3.124;2023-04-06T01:58:18;83.50;;;18.85;;
47009;SDS011;59230;54.164;-3.124;2023-04-06T02:00:43;56.03;;;16.80;;
47009;SDS011;59230;54.164;-3.124;2023-04-06T02:03:10;64.63;;;15.13;;
47009;SDS011;59230;54.164;-3.124;2023-04-06T02:05:42;53.30;;;14.43;;
47009;SDS011;59230;54.164;-3.124;2023-04-06T02:08:08;60.15;;;13.10;;
47009;SDS011;59230;54.164;-3.124;2023-04-06T02:10:34;72.32;;;15.00;;
47009;SDS011;59230;54.164;-3.124;2023-04-06T02:13:02;66.10;;;13.65;;
47009;SDS011;59230;54.164;-3.124;2023-04-06T02:15:30;63.25;;;14.32;;
47009;SDS011;59230;54.164;-3.124;2023-04-06T02:17:59;59.85;;;14.60;;
47009;SDS011;59230;54.164;-3.124;2023-04-06T02:20:28;28.98;;;8.93;;
47009;SDS011;59230;54.164;-3.124;2023-04-06T02:22:56;12.55;;;5.95;;
47009;SDS011;59230;54.164;-3.124;2023-04-06T02:25:26;9.55;;;4.25;;
47009;SDS011;59230;54.164;-3.124;2023-04-06T02:27:52;15.30;;;4.03;;
47009;SDS011;59230;54.164;-3.124;2023-04-06T02:30:17;7.28;;;2.90;;
47009;SDS011;59230;54.164;-3.124;2023-04-06T02:32:43;11.93;;;2.50;;
47009;SDS011;59230;54.164;-3.124;2023-04-06T02:35:08;6.80;;;2.60;;
47009;SDS011;59230;54.164;-3.124;2023-04-06T02:37:33;6.57;;;2.90;;
47009;SDS011;59230;54.164;-3.124;2023-04-06T02:40:00;8.50;;;2.70;;
47009;SDS011;59230;54.164;-3.124;2023-04-06T02:42:30;7.57;;;2.55;;
47009;SDS011;59230;54.164;-3.124;2023-04-06T02:44:56;8.57;;;2.53;;
47009;SDS011;59230;54.164;-3.124;2023-04-06T02:47:25;8.05;;;2.50;;
47009;SDS011;59230;54.164;-3.124;2023-04-06T02:49:51;6.13;;;2.63;;
47009;SDS011;59230;54.164;-3.124;2023-04-06T02:52:17;5.85;;;2.65;;
47009;SDS011;59230;54.164;-3.124;2023-04-06T02:54:45;8.35;;;2.22;;
47009;SDS011;59230;54.164;-3.124;2023-04-06T02:57:10;4.22;;;2.17;;
47009;SDS011;59230;54.164;-3.124;2023-04-06T02:59:36;4.80;;;2.17;;
47009;SDS011;59230;54.164;-3.124;2023-04-06T03:02:03;5.28;;;2.10;;
47009;SDS011;59230;54.164;-3.124;2023-04-06T03:04:28;5.53;;;1.90;;
47009;SDS011;59230;54.164;-3.124;2023-04-06T03:06:55;5.53;;;1.60;;
47009;SDS011;59230;54.164;-3.124;2023-04-06T03:09:21;2.78;;;0.80;;
47009;SDS011;59230;54.164;-3.124;2023-04-06T03:11:47;3.55;;;1.10;;
47009;SDS011;59230;54.164;-3.124;2023-04-06T03:14:16;5.20;;;0.68;;
47009;SDS011;59230;54.164;-3.124;2023-04-06T03:16:48;1.15;;;0.60;;
47009;SDS011;59230;54.164;-3.124;2023-04-06T03:19:15;4.53;;;0.60;;
47009;SDS011;59230;54.164;-3.124;2023-04-06T03:21:44;1.10;;;0.50;;
47009;SDS011;59230;54.164;-3.124;2023-04-06T03:24:10;1.52;;;0.50;;
47009;SDS011;59230;54.164;-3.124;2023-04-06T03:26:36;2.08;;;0.75;;
47009;SDS011;59230;54.164;-3.124;2023-04-06T03:29:03;1.17;;;0.50;;
47009;SDS011;59230;54.164;-3.124;2023-04-06T03:31:28;3.63;;;0.77;;
47009;SDS011;59230;54.164;-3.124;2023-04-06T03:33:54;2.33;;;0.70;;
47009;SDS011;59230;54.164;-3.124;2023-04-06T03:36:20;2.60;;;1.00;;
47009;SDS011;59230;54.164;-3.124;2023-04-06T03:38:47;5.43;;;0.90;;
47009;SDS011;59230;54.164;-3.124;2023-04-06T03:41:14;4.30;;;0.88;;
47009;SDS011;59230;54.164;-3.124;2023-04-06T03:43:43;2.10;;;0.95;;
47009;SDS011;59230;54.164;-3.124;2023-04-06T03:46:10;6.38;;;1.20;;
47009;SDS011;59230;54.164;-3.124;2023-04-06T03:48:36;3.40;;;1.00;;
47009;SDS011;59230;54.164;-3.124;2023-04-06T03:51:02;4.97;;;1.10;;
47009;SDS011;59230;54.164;-3.124;2023-04-06T03:53:29;4.88;;;1.05;;
47009;SDS011;59230;54.164;-3.124;2023-04-06T03:55:54;2.35;;;1.05;;
47009;SDS011;59230;54.164;-3.124;2023-04-06T03:58:20;6.15;;;1.05;;
47009;SDS011;59230;54.164;-3.124;2023-04-06T04:00:46;5.28;;;1.20;;
47009;SDS011;59230;54.164;-3.124;2023-04-06T04:03:14;5.40;;;0.95;;
47009;SDS011;59230;54.164;-3.124;2023-04-06T04:05:42;4.90;;;1.15;;
47009;SDS011;59230;54.164;-3.124;2023-04-06T04:08:10;5.05;;;1.20;;
47009;SDS011;59230;54.164;-3.124;2023-04-06T04:10:37;4.38;;;1.00;;
47009;SDS011;59230;54.164;-3.124;2023-04-06T04:13:04;6.60;;;1.02;;
47009;SDS011;59230;54.164;-3.124;2023-04-06T04:15:30;5.68;;;1.20;;
47009;SDS011;59230;54.164;-3.124;2023-04-06T04:17:56;4.82;;;1.10;;
47009;SDS011;59230;54.164;-3.124;2023-04-06T04:20:23;5.38;;;1.17;;
47009;SDS011;59230;54.164;-3.124;2023-04-06T04:22:48;4.95;;;1.30;;
47009;SDS011;59230;54.164;-3.124;2023-04-06T04:25:17;5.75;;;1.00;;
47009;SDS011;59230;54.164;-3.124;2023-04-06T04:27:42;4.45;;;0.88;;
47009;SDS011;59230;54.164;-3.124;2023-04-06T04:30:09;3.78;;;1.10;;
47009;SDS011;59230;54.164;-3.124;2023-04-06T04:32:35;3.30;;;1.15;;
47009;SDS011;59230;54.164;-3.124;2023-04-06T04:35:00;5.47;;;1.33;;
47009;SDS011;59230;54.164;-3.124;2023-04-06T04:37:28;7.18;;;1.27;;
47009;SDS011;59230;54.164;-3.124;2023-04-06T04:39:53;9.93;;;1.42;;
47009;SDS011;59230;54.164;-3.124;2023-04-06T04:42:19;4.72;;;1.50;;
47009;SDS011;59230;54.164;-3.124;2023-04-06T04:44:44;4.78;;;1.30;;
47009;SDS011;59230;54.164;-3.124;2023-04-06T04:47:10;8.77;;;1.67;;
47009;SDS011;59230;54.164;-3.124;2023-04-06T04:49:37;17.10;;;2.35;;
47009;SDS011;59230;54.164;-3.124;2023-04-06T04:52:04;17.67;;;2.55;;
47009;SDS011;59230;54.164;-3.124;2023-04-06T04:54:30;10.68;;;2.50;;
47009;SDS011;59230;54.164;-3.124;2023-04-06T04:56:55;12.20;;;1.98;;
47009;SDS011;59230;54.164;-3.124;2023-04-06T04:59:21;19.33;;;2.67;;
47009;SDS011;59230;54.164;-3.124;2023-04-06T05:01:48;20.65;;;2.35;;
47009;SDS011;59230;54.164;-3.124;2023-04-06T05:04:17;23.17;;;2.80;;
47009;SDS011;59230;54.164;-3.124;2023-04-06T05:06:43;21.02;;;2.72;;
47009;SDS011;59230;54.164;-3.124;2023-04-06T05:09:09;23.65;;;3.60;;
47009;SDS011;59230;54.164;-3.124;2023-04-06T05:11:35;32.70;;;3.78;;
47009;SDS011;59230;54.164;-3.124;2023-04-06T05:14:02;25.92;;;3.25;;
47009;SDS011;59230;54.164;-3.124;2023-04-06T05:16:27;23.60;;;3.80;;
47009;SDS011;59230;54.164;-3.124;2023-04-06T05:18:53;31.70;;;3.35;;
47009;SDS011;59230;54.164;-3.124;2023-04-06T05:21:18;17.55;;;2.83;;
47009;SDS011;59230;54.164;-3.124;2023-04-06T05:23:47;29.88;;;4.10;;
47009;SDS011;59230;54.164;-3.124;2023-04-06T05:26:13;29.15;;;4.13;;
47009;SDS011;59230;54.164;-3.124;2023-04-06T05:28:40;18.55;;;3.80;;
47009;SDS011;59230;54.164;-3.124;2023-04-06T05:31:09;27.60;;;3.55;;
47009;SDS011;59230;54.164;-3.124;2023-04-06T05:33:35;35.65;;;3.78;;
47009;SDS011;59230;54.164;-3.124;2023-04-06T05:36:00;29.40;;;4.05;;
47009;SDS011;59230;54.164;-3.124;2023-04-06T05:38:30;22.13;;;3.13;;
47009;SDS011;59230;54.164;-3.124;2023-04-06T05:40:56;23.48;;;3.28;;
47009;SDS011;59230;54.164;-3.124;2023-04-06T05:43:22;34.08;;;4.05;;
47009;SDS011;59230;54.164;-3.124;2023-04-06T05:45:49;17.73;;;2.85;;
47009;SDS011;59230;54.164;-3.124;2023-04-06T05:48:15;30.23;;;3.85;;
47009;SDS011;59230;54.164;-3.124;2023-04-06T05:50:41;27.52;;;3.38;;
47009;SDS011;59230;54.164;-3.124;2023-04-06T05:53:06;24.48;;;3.65;;
47009;SDS011;59230;54.164;-3.124;2023-04-06T05:55:32;27.92;;;3.60;;
47009;SDS011;59230;54.164;-3.124;2023-04-06T05:57:59;26.67;;;3.30;;
47009;SDS011;59230;54.164;-3.124;2023-04-06T06:00:24;23.30;;;3.38;;
47009;SDS011;59230;54.164;-3.124;2023-04-06T06:02:52;28.30;;;3.88;;
47009;SDS011;59230;54.164;-3.124;2023-04-06T06:05:19;23.15;;;2.95;;
47009;SDS011;59230;54.164;-3.124;2023-04-06T06:07:45;22.77;;;2.83;;
47009;SDS011;59230;54.164;-3.124;2023-04-06T06:10:11;30.67;;;3.70;;
47009;SDS011;59230;54.164;-3.124;2023-04-06T06:12:37;33.53;;;3.47;;
47009;SDS011;59230;54.164;-3.124;2023-04-06T06:15:04;24.30;;;3.55;;
47009;SDS011;59230;54.164;-3.124;2023-04-06T06:17:33;31.00;;;4.07;;
47009;SDS011;59230;54.164;-3.124;2023-04-06T06:20:00;24.08;;;3.42;;
47009;SDS011;59230;54.164;-3.124;2023-04-06T06:22:25;29.95;;;3.17;;
47009;SDS011;59230;54.164;-3.124;2023-04-06T06:24:53;21.83;;;3.60;;
47009;SDS011;59230;54.164;-3.124;2023-04-06T06:27:18;35.20;;;4.70;;
47009;SDS011;59230;54.164;-3.124;2023-04-06T06:29:44;27.88;;;3.67;;
47009;SDS011;59230;54.164;-3.124;2023-04-06T06:32:12;26.05;;;3.92;;
47009;SDS011;59230;54.164;-3.124;2023-04-06T06:34:39;30.52;;;4.32;;
47009;SDS011;59230;54.164;-3.124;2023-04-06T06:37:05;28.80;;;3.70;;
47009;SDS011;59230;54.164;-3.124;2023-04-06T06:39:33;38.58;;;4.03;;
47009;SDS011;59230;54.164;-3.124;2023-04-06T06:41:58;43.00;;;4.43;;
47009;SDS011;59230;54.164;-3.124;2023-04-06T06:44:28;33.88;;;3.90;;
47009;SDS011;59230;54.164;-3.124;2023-04-06T06:46:56;28.95;;;3.75;;
47009;SDS011;59230;54.164;-3.124;2023-04-06T06:49:24;27.58;;;4.38;;
47009;SDS011;59230;54.164;-3.124;2023-04-06T06:51:52;36.58;;;4.88;;
47009;SDS011;59230;54.164;-3.124;2023-04-06T06:54:17;33.97;;;5.03;;
47009;SDS011;59230;54.164;-3.124;2023-04-06T06:56:46;34.90;;;4.20;;
47009;SDS011;59230;54.164;-3.124;2023-04-06T06:59:15;35.58;;;4.40;;
47009;SDS011;59230;54.164;-3.124;2023-04-06T07:01:42;38.17;;;4.50;;
47009;SDS011;59230;54.164;-3.124;2023-04-06T07:04:11;31.95;;;5.03;;
47009;SDS011;59230;54.164;-3.124;2023-04-06T07:06:37;32.05;;;4.18;;
47009;SDS011;59230;54.164;-3.124;2023-04-06T07:09:05;39.05;;;5.85;;
47009;SDS011;59230;54.164;-3.124;2023-04-06T07:11:30;27.13;;;4.93;;
47009;SDS011;59230;54.164;-3.124;2023-04-06T07:13:58;36.40;;;4.45;;
47009;SDS011;59230;54.164;-3.124;2023-04-06T07:16:25;35.03;;;5.07;;
47009;SDS011;59230;54.164;-3.124;2023-04-06T07:18:52;27.77;;;3.95;;
47009;SDS011;59230;54.164;-3.124;2023-04-06T07:21:17;32.22;;;4.50;;
47009;SDS011;59230;54.164;-3.124;2023-04-06T07:23:42;28.75;;;4.72;;
47009;SDS011;59230;54.164;-3.124;2023-04-06T07:26:08;35.67;;;4.70;;
47009;SDS011;59230;54.164;-3.124;2023-04-06T07:28:35;35.00;;;4.68;;
47009;SDS011;59230;54.164;-3.124;2023-04-06T07:31:02;30.38;;;4.53;;
47009;SDS011;59230;54.164;-3.124;2023-04-06T07:33:31;42.63;;;4.90;;
47009;SDS011;59230;54.164;-3.124;2023-04-06T07:35:59;24.80;;;4.18;;
47009;SDS011;59230;54.164;-3.124;2023-04-06T07:38:24;21.25;;;4.15;;
47009;SDS011;59230;54.164;-3.124;2023-04-06T07:40:54;31.13;;;4.00;;
47009;SDS011;59230;54.164;-3.124;2023-04-06T07:43:21;31.15;;;4.30;;
47009;SDS011;59230;54.164;-3.124;2023-04-06T07:45:47;28.23;;;3.72;;
47009;SDS011;59230;54.164;-3.124;2023-04-06T07:48:12;31.77;;;4.47;;
47009;SDS011;59230;54.164;-3.124;2023-04-06T07:50:39;33.40;;;4.75;;
47009;SDS011;59230;54.164;-3.124;2023-04-06T07:53:05;30.27;;;4.72;;
47009;SDS011;59230;54.164;-3.124;2023-04-06T07:55:30;26.38;;;4.13;;
47009;SDS011;59230;54.164;-3.124;2023-04-06T07:57:56;30.73;;;4.80;;
47009;SDS011;59230;54.164;-3.124;2023-04-06T08:00:21;30.27;;;4.40;;
47009;SDS011;59230;54.164;-3.124;2023-04-06T08:02:47;24.45;;;3.83;;
47009;SDS011;59230;54.164;-3.124;2023-04-06T08:05:12;38.40;;;4.80;;
47009;SDS011;59230;54.164;-3.124;2023-04-06T08:07:39;31.13;;;3.72;;
47009;SDS011;59230;54.164;-3.124;2023-04-06T08:10:06;32.28;;;4.05;;
47009;SDS011;59230;54.164;-3.124;2023-04-06T08:12:34;31.90;;;3.50;;
47009;SDS011;59230;54.164;-3.124;2023-04-06T08:15:00;42.67;;;6.05;;
47009;SDS011;59230;54.164;-3.124;2023-04-06T08:17:29;28.20;;;4.35;;
47009;SDS011;59230;54.164;-3.124;2023-04-06T08:19:56;43.95;;;5.63;;
47009;SDS011;59230;54.164;-3.124;2023-04-06T08:22:21;31.98;;;3.85;;
47009;SDS011;59230;54.164;-3.124;2023-04-06T08:24:47;43.05;;;4.70;;
47009;SDS011;59230;54.164;-3.124;2023-04-06T08:27:12;28.83;;;4.13;;
47009;SDS011;59230;54.164;-3.124;2023-04-06T08:29:40;34.50;;;4.20;;
47009;SDS011;59230;54.164;-3.124;2023-04-06T08:32:06;24.80;;;3.95;;
47009;SDS011;59230;54.164;-3.124;2023-04-06T08:34:34;74.47;;;21.58;;
47009;SDS011;59230;54.164;-3.124;2023-04-06T08:37:01;30.73;;;5.07;;
47009;SDS011;59230;54.164;-3.124;2023-04-06T08:39:33;55.70;;;10.63;;
47009;SDS011;59230;54.164;-3.124;2023-04-06T08:41:59;31.80;;;5.40;;
47009;SDS011;59230;54.164;-3.124;2023-04-06T08:44:30;36.13;;;5.32;;
47009;SDS011;59230;54.164;-3.124;2023-04-06T08:46:57;49.38;;;15.55;;
47009;SDS011;59230;54.164;-3.124;2023-04-06T08:49:25;282.33;;;94.70;;
47009;SDS011;59230;54.164;-3.124;2023-04-06T08:51:53;43.10;;;6.18;;
47009;SDS011;59230;54.164;-3.124;2023-04-06T08:54:23;42.28;;;6.50;;
47009;SDS011;59230;54.164;-3.124;2023-04-06T08:56:51;33.95;;;4.85;;
47009;SDS011;59230;54.164;-3.124;2023-04-06T08:59:21;40.17;;;4.10;;
47009;SDS011;59230;54.164;-3.124;2023-04-06T09:01:50;26.83;;;4.07;;
47009;SDS011;59230;54.164;-3.124;2023-04-06T09:04:18;30.23;;;4.65;;
47009;SDS011;59230;54.164;-3.124;2023-04-06T09:06:45;22.52;;;4.13;;
47009;SDS011;59230;54.164;-3.124;2023-04-06T09:09:15;33.50;;;4.05;;
47009;SDS011;59230;54.164;-3.124;2023-04-06T09:11:44;32.75;;;4.25;;
47009;SDS011;59230;54.164;-3.124;2023-04-06T09:14:13;31.20;;;4.22;;
47009;SDS011;59230;54.164;-3.124;2023-04-06T09:16:43;40.03;;;4.45;;
47009;SDS011;59230;54.164;-3.124;2023-04-06T09:19:12;19.73;;;3.97;;
47009;SDS011;59230;54.164;-3.124;2023-04-06T09:21:41;28.67;;;4.03;;
47009;SDS011;59230;54.164;-3.124;2023-04-06T09:24:09;26.25;;;3.97;;
47009;SDS011;59230;54.164;-3.124;2023-04-06T09:26:46;28.02;;;3.55;;
47009;SDS011;59230;54.164;-3.124;2023-04-06T09:29:26;28.65;;;3.95;;
47009;SDS011;59230;54.164;-3.124;2023-04-06T09:32:03;26.27;;;4.15;;
47009;SDS011;59230;54.164;-3.124;2023-04-06T09:34:44;26.48;;;3.38;;
47009;SDS011;59230;54.164;-3.124;2023-04-06T09:39:40;28.90;;;3.83;;
47009;SDS011;59230;54.164;-3.124;2023-04-06T09:42:07;20.73;;;3.67;;
47009;SDS011;59230;54.164;-3.124;2023-04-06T09:44:34;24.05;;;3.80;;
47009;SDS011;59230;54.164;-3.124;2023-04-06T09:47:03;33.42;;;3.97;;
47009;SDS011;59230;54.164;-3.124;2023-04-06T09:49:33;35.22;;;4.68;;
47009;SDS011;59230;54.164;-3.124;2023-04-06T09:52:05;32.83;;;4.05;;
47009;SDS011;59230;54.164;-3.124;2023-04-06T10:05:54;20.08;;;3.13;;
47009;SDS011;59230;54.164;-3.124;2023-04-06T10:08:28;24.92;;;3.55;;
47009;SDS011;59230;54.164;-3.124;2023-04-06T10:10:55;20.30;;;3.47;;
47009;SDS011;59230;54.164;-3.124;2023-04-06T10:13:24;26.27;;;2.60;;
47009;SDS011;59230;54.164;-3.124;2023-04-06T10:15:50;22.33;;;3.40;;
47009;SDS011;59230;54.164;-3.124;2023-04-06T10:18:17;21.48;;;3.70;;
47009;SDS011;59230;54.164;-3.124;2023-04-06T10:20:49;18.83;;;3.30;;
47009;SDS011;59230;54.164;-3.124;2023-04-06T10:25:59;27.88;;;4.00;;
47009;SDS011;59230;54.164;-3.124;2023-04-06T10:28:26;33.45;;;4.07;;
47009;SDS011;59230;54.164;-3.124;2023-04-06T10:31:01;20.90;;;3.33;;
47009;SDS011;59230;54.164;-3.124;2023-04-06T10:33:30;29.30;;;4.03;;
47009;SDS011;59230;54.164;-3.124;2023-04-06T10:35:58;28.38;;;3.45;;
47009;SDS011;59230;54.164;-3.124;2023-04-06T10:38:37;22.83;;;3.78;;
47009;SDS011;59230;54.164;-3.124;2023-04-06T10:41:11;26.50;;;3.40;;
47009;SDS011;59230;54.164;-3.124;2023-04-06T10:43:39;24.25;;;3.80;;
47009;SDS011;59230;54.164;-3.124;2023-04-06T10:46:07;20.02;;;3.40;;
47009;SDS011;59230;54.164;-3.124;2023-04-06T10:48:44;32.30;;;3.90;;
47009;SDS011;59230;54.164;-3.124;2023-04-06T10:51:14;20.40;;;4.20;;
47009;SDS011;59230;54.164;-3.124;2023-04-06T10:53:42;30.15;;;3.83;;
47009;SDS011;59230;54.164;-3.124;2023-04-06T10:56:14;23.60;;;3.83;;
47009;SDS011;59230;54.164;-3.124;2023-04-06T10:58:44;21.13;;;2.88;;
47009;SDS011;59230;54.164;-3.124;2023-04-06T11:01:19;16.27;;;2.97;;
47009;SDS011;59230;54.164;-3.124;2023-04-06T11:03:54;35.47;;;3.75;;
47009;SDS011;59230;54.164;-3.124;2023-04-06T11:06:29;17.95;;;3.35;;
47009;SDS011;59230;54.164;-3.124;2023-04-06T11:08:59;17.50;;;3.22;;
47009;SDS011;59230;54.164;-3.124;2023-04-06T11:11:28;20.13;;;2.83;;
47009;SDS011;59230;54.164;-3.124;2023-04-06T11:13:57;19.90;;;2.53;;
47009;SDS011;59230;54.164;-3.124;2023-04-06T11:16:24;23.67;;;2.83;;
47009;SDS011;59230;54.164;-3.124;2023-04-06T11:21:30;25.45;;;3.20;;
47009;SDS011;59230;54.164;-3.124;2023-04-06T11:26:53;23.10;;;3.58;;
47009;SDS011;59230;54.164;-3.124;2023-04-06T11:29:22;17.15;;;2.47;;
47009;SDS011;59230;54.164;-3.124;2023-04-06T11:31:52;22.00;;;3.22;;
47009;SDS011;59230;54.164;-3.124;2023-04-06T11:34:22;26.48;;;3.42;;
47009;SDS011;59230;54.164;-3.124;2023-04-06T11:37:00;18.17;;;3.40;;
47009;SDS011;59230;54.164;-3.124;2023-04-06T11:39:31;13.50;;;2.50;;
47009;SDS011;59230;54.164;-3.124;2023-04-06T11:42:00;8.68;;;1.58;;
47009;SDS011;59230;54.164;-3.124;2023-04-06T11:44:31;12.10;;;2.00;;
47009;SDS011;59230;54.164;-3.124;2023-04-06T11:47:02;11.80;;;2.47;;
47009;SDS011;59230;54.164;-3.124;2023-04-06T11:49:32;19.27;;;2.80;;
47009;SDS011;59230;54.164;-3.124;2023-04-06T11:52:02;19.88;;;2.60;;
47009;SDS011;59230;54.164;-3.124;2023-04-06T11:54:35;18.83;;;2.55;;
47009;SDS011;59230;54.164;-3.124;2023-04-06T11:57:04;15.65;;;2.38;;
47009;SDS011;59230;54.164;-3.124;2023-04-06T11:59:31;14.50;;;2.67;;
47009;SDS011;59230;54.164;-3.124;2023-04-06T12:01:57;16.92;;;3.08;;
47009;SDS011;59230;54.164;-3.124;2023-04-06T12:04:25;18.30;;;3.58;;
47009;SDS011;59230;54.164;-3.124;2023-04-06T12:06:51;17.35;;;2.80;;
47009;SDS011;59230;54.164;-3.124;2023-04-06T12:09:18;20.58;;;2.78;;
47009;SDS011;59230;54.164;-3.124;2023-04-06T12:11:45;16.35;;;2.88;;
47009;SDS011;59230;54.164;-3.124;2023-04-06T12:14:11;14.93;;;2.05;;
47009;SDS011;59230;54.164;-3.124;2023-04-06T12:16:38;14.70;;;2.55;;
47009;SDS011;59230;54.164;-3.124;2023-04-06T12:19:07;16.60;;;2.35;;
47009;SDS011;59230;54.164;-3.124;2023-04-06T12:21:34;21.58;;;3.20;;
47009;SDS011;59230;54.164;-3.124;2023-04-06T12:24:02;15.80;;;2.17;;
47009;SDS011;59230;54.164;-3.124;2023-04-06T12:26:30;13.05;;;2.63;;
47009;SDS011;59230;54.164;-3.124;2023-04-06T12:28:56;15.23;;;2.30;;
47009;SDS011;59230;54.164;-3.124;2023-04-06T12:31:34;17.85;;;2.58;;
47009;SDS011;59230;54.164;-3.124;2023-04-06T12:34:03;15.85;;;1.98;;
47009;SDS011;59230;54.164;-3.124;2023-04-06T12:36:30;17.83;;;2.55;;
47009;SDS011;59230;54.164;-3.124;2023-04-06T12:38:56;16.77;;;1.90;;
47009;SDS011;59230;54.164;-3.124;2023-04-06T12:41:23;17.30;;;2.35;;
47009;SDS011;59230;54.164;-3.124;2023-04-06T12:43:52;14.50;;;2.35;;
47009;SDS011;59230;54.164;-3.124;2023-04-06T12:46:18;15.02;;;2.25;;
47009;SDS011;59230;54.164;-3.124;2023-04-06T12:48:43;16.90;;;1.92;;
47009;SDS011;59230;54.164;-3.124;2023-04-06T12:51:09;13.80;;;1.83;;
47009;SDS011;59230;54.164;-3.124;2023-04-06T12:53:35;13.35;;;1.92;;
47009;SDS011;59230;54.164;-3.124;2023-04-06T12:56:11;10.57;;;2.03;;
47009;SDS011;59230;54.164;-3.124;2023-04-06T12:58:40;10.18;;;1.85;;
47009;SDS011;59230;54.164;-3.124;2023-04-06T13:01:07;7.07;;;1.50;;
47009;SDS011;59230;54.164;-3.124;2023-04-06T13:03:34;8.15;;;1.58;;
47009;SDS011;59230;54.164;-3.124;2023-04-06T13:06:01;16.35;;;2.47;;
47009;SDS011;59230;54.164;-3.124;2023-04-06T13:08:27;17.88;;;2.10;;
47009;SDS011;59230;54.164;-3.124;2023-04-06T13:10:54;13.00;;;2.33;;
47009;SDS011;59230;54.164;-3.124;2023-04-06T13:13:26;12.93;;;1.92;;
47009;SDS011;59230;54.164;-3.124;2023-04-06T13:15:54;10.32;;;1.75;;
47009;SDS011;59230;54.164;-3.124;2023-04-06T13:18:23;14.43;;;1.83;;
47009;SDS011;59230;54.164;-3.124;2023-04-06T13:20:50;9.25;;;1.33;;
47009;SDS011;59230;54.164;-3.124;2023-04-06T13:23:16;15.35;;;1.98;;
47009;SDS011;59230;54.164;-3.124;2023-04-06T13:25:43;11.13;;;1.85;;
47009;SDS011;59230;54.164;-3.124;2023-04-06T13:28:08;12.93;;;1.90;;
47009;SDS011;59230;54.164;-3.124;2023-04-06T13:30:35;7.72;;;1.77;;
47009;SDS011;59230;54.164;-3.124;2023-04-06T13:33:01;17.13;;;1.98;;
47009;SDS011;59230;54.164;-3.124;2023-04-06T13:35:28;15.00;;;2.55;;
47009;SDS011;59230;54.164;-3.124;2023-04-06T13:37:55;16.13;;;1.83;;
47009;SDS011;59230;54.164;-3.124;2023-04-06T13:40:21;13.13;;;2.00;;
47009;SDS011;59230;54.164;-3.124;2023-04-06T13:42:47;16.52;;;3.33;;
47009;SDS011;59230;54.164;-3.124;2023-04-06T13:45:16;18.92;;;3.28;;
47009;SDS011;59230;54.164;-3.124;2023-04-06T13:47:42;21.27;;;2.20;;
47009;SDS011;59230;54.164;-3.124;2023-04-06T13:50:08;17.63;;;2.50;;
47009;SDS011;59230;54.164;-3.124;2023-04-06T13:52:34;17.83;;;3.13;;
47009;SDS011;59230;54.164;-3.124;2023-04-06T13:55:03;36.55;;;3.58;;
47009;SDS011;59230;54.164;-3.124;2023-04-06T13:57:30;14.77;;;2.40;;
47009;SDS011;59230;54.164;-3.124;2023-04-06T13:59:56;13.20;;;1.83;;
47009;SDS011;59230;54.164;-3.124;2023-04-06T14:02:23;12.48;;;2.30;;
47009;SDS011;59230;54.164;-3.124;2023-04-06T14:04:52;14.93;;;1.67;;
47009;SDS011;59230;54.164;-3.124;2023-04-06T14:07:20;24.23;;;2.95;;
47009;SDS011;59230;54.164;-3.124;2023-04-06T14:09:48;11.98;;;1.67;;
47009;SDS011;59230;54.164;-3.124;2023-04-06T14:12:14;16.00;;;2.50;;
47009;SDS011;59230;54.164;-3.124;2023-04-06T14:14:40;14.80;;;1.90;;
47009;SDS011;59230;54.164;-3.124;2023-04-06T14:17:07;11.20;;;1.65;;
47009;SDS011;59230;54.164;-3.124;2023-04-06T14:19:33;23.52;;;2.63;;
47009;SDS011;59230;54.164;-3.124;2023-04-06T14:21:59;15.02;;;2.20;;
47009;SDS011;59230;54.164;-3.124;2023-04-06T14:24:27;14.88;;;1.85;;
47009;SDS011;59230;54.164;-3.124;2023-04-06T14:26:53;13.18;;;1.67;;
47009;SDS011;59230;54.164;-3.124;2023-04-06T14:29:20;16.05;;;1.90;;
47009;SDS011;59230;54.164;-3.124;2023-04-06T14:31:47;12.73;;;1.65;;
47009;SDS011;59230;54.164;-3.124;2023-04-06T14:34:13;12.93;;;1.98;;
47009;SDS011;59230;54.164;-3.124;2023-04-06T14:36:38;16.52;;;2.00;;
47009;SDS011;59230;54.164;-3.124;2023-04-06T14:39:04;13.52;;;1.70;;
47009;SDS011;59230;54.164;-3.124;2023-04-06T14:41:31;11.95;;;2.30;;
47009;SDS011;59230;54.164;-3.124;2023-04-06T14:44:02;14.60;;;2.00;;